sensor_id;sensor_type;location;lat;lon;timestamp;P1;durP1;ratioP1;P2;durP2;ratioP2
80307;SDS011;69616;43.522;1.348;2023-05-14T00:01:54;9.45;;;2.90;;
80307;SDS011;69616;43.522;1.348;2023-05-14T00:04:19;6.70;;;3.10;;
80307;SDS011;69616;43.522;1.348;2023-05-14T00:06:45;8.30;;;2.97;;
80307;SDS011;69616;43.522;1.348;2023-05-14T00:09:11;7.97;;;3.30;;
80307;SDS011;69616;43.522;1.348;2023-05-14T00:11:37;7.83;;;3.23;;
80307;SDS011;69616;43.522;1.348;2023-05-14T00:14:02;9.65;;;3.38;;
80307;SDS011;69616;43.522;1.348;2023-05-14T00:16:28;10.37;;;3.80;;
80307;SDS011;69616;43.522;1.348;2023-05-14T00:18:53;8.63;;;3.83;;
80307;SDS011;69616;43.522;1.348;2023-05-14T00:21:19;9.37;;;3.80;;
80307;SDS011;69616;43.522;1.348;2023-05-14T00:23:44;9.77;;;3.75;;
80307;SDS011;69616;43.522;1.348;2023-05-14T00:26:10;9.63;;;3.70;;
80307;SDS011;69616;43.522;1.348;2023-05-14T00:28:35;6.20;;;3.20;;
80307;SDS011;69616;43.522;1.348;2023-05-14T00:31:01;9.18;;;3.50;;
80307;SDS011;69616;43.522;1.348;2023-05-14T00:33:26;9.43;;;3.70;;
80307;SDS011;69616;43.522;1.348;2023-05-14T00:35:52;10.20;;;3.60;;
80307;SDS011;69616;43.522;1.348;2023-05-14T00:38:17;8.38;;;3.45;;
80307;SDS011;69616;43.522;1.348;2023-05-14T00:40:43;10.57;;;3.47;;
80307;SDS011;69616;43.522;1.348;2023-05-14T00:43:15;8.23;;;3.55;;
80307;SDS011;69616;43.522;1.348;2023-05-14T00:45:41;6.53;;;3.30;;
80307;SDS011;69616;43.522;1.348;2023-05-14T00:48:06;7.43;;;3.30;;
80307;SDS011;69616;43.522;1.348;2023-05-14T00:50:32;10.68;;;3.70;;
80307;SDS011;69616;43.522;1.348;2023-05-14T00:52:58;6.67;;;3.00;;
80307;SDS011;69616;43.522;1.348;2023-05-14T00:55:24;11.27;;;2.88;;
80307;SDS011;69616;43.522;1.348;2023-05-14T00:57:50;7.95;;;3.22;;
80307;SDS011;69616;43.522;1.348;2023-05-14T01:00:17;8.32;;;3.30;;
80307;SDS011;69616;43.522;1.348;2023-05-14T01:02:42;7.50;;;3.40;;
80307;SDS011;69616;43.522;1.348;2023-05-14T01:05:08;7.57;;;3.60;;
80307;SDS011;69616;43.522;1.348;2023-05-14T01:07:44;6.45;;;3.30;;
80307;SDS011;69616;43.522;1.348;2023-05-14T01:10:37;7.22;;;3.40;;
80307;SDS011;69616;43.522;1.348;2023-05-14T01:13:17;8.13;;;3.60;;
80307;SDS011;69616;43.522;1.348;2023-05-14T01:15:46;6.97;;;3.42;;
80307;SDS011;69616;43.522;1.348;2023-05-14T01:18:13;8.02;;;3.50;;
80307;SDS011;69616;43.522;1.348;2023-05-14T01:20:41;8.18;;;3.60;;
80307;SDS011;69616;43.522;1.348;2023-05-14T01:23:08;9.60;;;3.72;;
80307;SDS011;69616;43.522;1.348;2023-05-14T01:25:33;7.13;;;3.60;;
80307;SDS011;69616;43.522;1.348;2023-05-14T01:28:05;6.63;;;3.87;;
80307;SDS011;69616;43.522;1.348;2023-05-14T01:30:40;11.05;;;4.15;;
80307;SDS011;69616;43.522;1.348;2023-05-14T01:33:25;12.70;;;4.38;;
80307;SDS011;69616;43.522;1.348;2023-05-14T01:36:00;8.38;;;3.80;;
80307;SDS011;69616;43.522;1.348;2023-05-14T01:38:26;8.20;;;4.27;;
80307;SDS011;69616;43.522;1.348;2023-05-14T01:40:55;9.88;;;4.30;;
80307;SDS011;69616;43.522;1.348;2023-05-14T01:43:22;7.75;;;4.18;;
80307;SDS011;69616;43.522;1.348;2023-05-14T01:45:48;7.93;;;4.18;;
80307;SDS011;69616;43.522;1.348;2023-05-14T01:48:13;8.03;;;4.50;;
80307;SDS011;69616;43.522;1.348;2023-05-14T01:50:39;8.27;;;3.92;;
80307;SDS011;69616;43.522;1.348;2023-05-14T01:53:05;9.17;;;4.60;;
80307;SDS011;69616;43.522;1.348;2023-05-14T01:55:30;9.27;;;4.68;;
80307;SDS011;69616;43.522;1.348;2023-05-14T01:57:55;10.13;;;4.63;;
80307;SDS011;69616;43.522;1.348;2023-05-14T02:00:21;8.37;;;4.53;;
80307;SDS011;69616;43.522;1.348;2023-05-14T02:02:49;9.88;;;4.57;;
80307;SDS011;69616;43.522;1.348;2023-05-14T02:05:14;8.23;;;4.83;;
80307;SDS011;69616;43.522;1.348;2023-05-14T02:07:40;8.83;;;4.63;;
80307;SDS011;69616;43.522;1.348;2023-05-14T02:10:05;9.13;;;5.30;;
80307;SDS011;69616;43.522;1.348;2023-05-14T02:12:33;10.57;;;5.17;;
80307;SDS011;69616;43.522;1.348;2023-05-14T02:14:58;10.52;;;5.05;;
80307;SDS011;69616;43.522;1.348;2023-05-14T02:17:24;8.83;;;5.07;;
80307;SDS011;69616;43.522;1.348;2023-05-14T02:19:50;12.07;;;5.43;;
80307;SDS011;69616;43.522;1.348;2023-05-14T02:22:16;9.75;;;4.85;;
80307;SDS011;69616;43.522;1.348;2023-05-14T02:24:42;10.97;;;5.47;;
80307;SDS011;69616;43.522;1.348;2023-05-14T02:27:07;11.60;;;5.40;;
80307;SDS011;69616;43.522;1.348;2023-05-14T02:29:32;9.53;;;5.37;;
80307;SDS011;69616;43.522;1.348;2023-05-14T02:31:59;8.25;;;4.85;;
80307;SDS011;69616;43.522;1.348;2023-05-14T02:34:25;8.50;;;5.10;;
80307;SDS011;69616;43.522;1.348;2023-05-14T02:36:50;12.45;;;5.20;;
80307;SDS011;69616;43.522;1.348;2023-05-14T02:39:16;10.53;;;5.47;;
80307;SDS011;69616;43.522;1.348;2023-05-14T02:41:41;12.87;;;5.33;;
80307;SDS011;69616;43.522;1.348;2023-05-14T02:44:06;12.77;;;5.90;;
80307;SDS011;69616;43.522;1.348;2023-05-14T02:46:32;12.10;;;5.45;;
80307;SDS011;69616;43.522;1.348;2023-05-14T02:48:57;12.83;;;5.40;;
80307;SDS011;69616;43.522;1.348;2023-05-14T02:51:23;12.80;;;5.70;;
80307;SDS011;69616;43.522;1.348;2023-05-14T02:53:49;9.95;;;5.28;;
80307;SDS011;69616;43.522;1.348;2023-05-14T02:56:14;9.27;;;5.13;;
80307;SDS011;69616;43.522;1.348;2023-05-14T02:58:40;11.45;;;5.55;;
80307;SDS011;69616;43.522;1.348;2023-05-14T03:01:06;11.77;;;5.70;;
80307;SDS011;69616;43.522;1.348;2023-05-14T03:03:31;10.10;;;5.53;;
80307;SDS011;69616;43.522;1.348;2023-05-14T03:05:58;9.77;;;5.50;;
80307;SDS011;69616;43.522;1.348;2023-05-14T03:08:23;11.30;;;5.37;;
80307;SDS011;69616;43.522;1.348;2023-05-14T03:10:49;10.57;;;5.40;;
80307;SDS011;69616;43.522;1.348;2023-05-14T03:13:14;10.73;;;5.80;;
80307;SDS011;69616;43.522;1.348;2023-05-14T03:15:42;10.25;;;5.13;;
80307;SDS011;69616;43.522;1.348;2023-05-14T03:18:12;8.43;;;5.10;;
80307;SDS011;69616;43.522;1.348;2023-05-14T03:20:37;11.73;;;4.93;;
80307;SDS011;69616;43.522;1.348;2023-05-14T03:23:03;10.57;;;6.15;;
80307;SDS011;69616;43.522;1.348;2023-05-14T03:25:29;9.43;;;5.07;;
80307;SDS011;69616;43.522;1.348;2023-05-14T03:27:54;8.07;;;4.67;;
80307;SDS011;69616;43.522;1.348;2023-05-14T03:30:20;8.40;;;4.73;;
80307;SDS011;69616;43.522;1.348;2023-05-14T03:32:45;8.53;;;4.20;;
80307;SDS011;69616;43.522;1.348;2023-05-14T03:35:11;8.00;;;4.45;;
80307;SDS011;69616;43.522;1.348;2023-05-14T03:37:36;11.33;;;4.60;;
80307;SDS011;69616;43.522;1.348;2023-05-14T03:40:02;9.00;;;4.47;;
80307;SDS011;69616;43.522;1.348;2023-05-14T03:42:28;9.38;;;5.18;;
80307;SDS011;69616;43.522;1.348;2023-05-14T03:44:53;9.67;;;4.30;;
80307;SDS011;69616;43.522;1.348;2023-05-14T03:47:19;10.90;;;4.45;;
80307;SDS011;69616;43.522;1.348;2023-05-14T03:49:44;7.60;;;4.00;;
80307;SDS011;69616;43.522;1.348;2023-05-14T03:52:10;7.13;;;4.17;;
80307;SDS011;69616;43.522;1.348;2023-05-14T03:54:35;11.07;;;4.30;;
80307;SDS011;69616;43.522;1.348;2023-05-14T03:57:02;8.00;;;4.40;;
80307;SDS011;69616;43.522;1.348;2023-05-14T03:59:27;8.02;;;4.18;;
80307;SDS011;69616;43.522;1.348;2023-05-14T04:01:53;8.47;;;4.67;;
80307;SDS011;69616;43.522;1.348;2023-05-14T04:04:18;8.13;;;4.27;;
80307;SDS011;69616;43.522;1.348;2023-05-14T04:06:44;8.25;;;4.75;;
80307;SDS011;69616;43.522;1.348;2023-05-14T04:09:09;9.67;;;4.40;;
80307;SDS011;69616;43.522;1.348;2023-05-14T04:11:35;9.43;;;4.27;;
80307;SDS011;69616;43.522;1.348;2023-05-14T04:14:01;6.97;;;4.10;;
80307;SDS011;69616;43.522;1.348;2023-05-14T04:16:27;8.97;;;4.43;;
80307;SDS011;69616;43.522;1.348;2023-05-14T04:18:52;8.70;;;3.97;;
80307;SDS011;69616;43.522;1.348;2023-05-14T04:21:18;8.03;;;3.93;;
80307;SDS011;69616;43.522;1.348;2023-05-14T04:23:43;7.47;;;4.07;;
80307;SDS011;69616;43.522;1.348;2023-05-14T04:26:09;6.87;;;4.07;;
80307;SDS011;69616;43.522;1.348;2023-05-14T04:28:34;8.88;;;4.20;;
80307;SDS011;69616;43.522;1.348;2023-05-14T04:31:00;7.27;;;3.60;;
80307;SDS011;69616;43.522;1.348;2023-05-14T04:33:25;6.20;;;3.60;;
80307;SDS011;69616;43.522;1.348;2023-05-14T04:35:51;7.65;;;3.80;;
80307;SDS011;69616;43.522;1.348;2023-05-14T04:38:17;6.57;;;3.67;;
80307;SDS011;69616;43.522;1.348;2023-05-14T04:40:43;7.20;;;3.73;;
80307;SDS011;69616;43.522;1.348;2023-05-14T04:43:08;7.43;;;4.25;;
80307;SDS011;69616;43.522;1.348;2023-05-14T04:45:34;8.07;;;4.00;;
80307;SDS011;69616;43.522;1.348;2023-05-14T04:48:00;8.70;;;4.28;;
80307;SDS011;69616;43.522;1.348;2023-05-14T04:50:26;8.37;;;4.27;;
80307;SDS011;69616;43.522;1.348;2023-05-14T04:52:51;8.45;;;4.05;;
80307;SDS011;69616;43.522;1.348;2023-05-14T04:55:17;6.33;;;3.87;;
80307;SDS011;69616;43.522;1.348;2023-05-14T04:57:42;6.57;;;3.93;;
80307;SDS011;69616;43.522;1.348;2023-05-14T05:00:08;7.43;;;3.80;;
80307;SDS011;69616;43.522;1.348;2023-05-14T05:02:34;7.73;;;3.50;;
80307;SDS011;69616;43.522;1.348;2023-05-14T05:05:00;7.10;;;3.70;;
80307;SDS011;69616;43.522;1.348;2023-05-14T05:07:25;7.55;;;3.88;;
80307;SDS011;69616;43.522;1.348;2023-05-14T05:09:51;6.37;;;3.07;;
80307;SDS011;69616;43.522;1.348;2023-05-14T05:12:16;6.33;;;2.87;;
80307;SDS011;69616;43.522;1.348;2023-05-14T05:14:42;6.80;;;3.55;;
80307;SDS011;69616;43.522;1.348;2023-05-14T05:17:07;7.10;;;3.53;;
80307;SDS011;69616;43.522;1.348;2023-05-14T05:19:33;7.03;;;3.73;;
80307;SDS011;69616;43.522;1.348;2023-05-14T05:21:58;6.80;;;3.60;;
80307;SDS011;69616;43.522;1.348;2023-05-14T05:24:24;6.68;;;3.50;;
80307;SDS011;69616;43.522;1.348;2023-05-14T05:26:49;7.30;;;3.37;;
80307;SDS011;69616;43.522;1.348;2023-05-14T05:29:15;8.30;;;3.85;;
80307;SDS011;69616;43.522;1.348;2023-05-14T05:31:41;6.33;;;3.33;;
80307;SDS011;69616;43.522;1.348;2023-05-14T05:34:07;6.78;;;3.28;;
80307;SDS011;69616;43.522;1.348;2023-05-14T05:36:32;8.33;;;3.70;;
80307;SDS011;69616;43.522;1.348;2023-05-14T05:38:58;6.80;;;3.35;;
80307;SDS011;69616;43.522;1.348;2023-05-14T05:41:24;6.77;;;3.40;;
80307;SDS011;69616;43.522;1.348;2023-05-14T05:43:50;8.85;;;3.42;;
80307;SDS011;69616;43.522;1.348;2023-05-14T05:46:17;6.83;;;3.13;;
80307;SDS011;69616;43.522;1.348;2023-05-14T05:48:43;5.30;;;3.08;;
80307;SDS011;69616;43.522;1.348;2023-05-14T05:51:08;6.37;;;3.10;;
80307;SDS011;69616;43.522;1.348;2023-05-14T05:53:34;6.10;;;3.00;;
80307;SDS011;69616;43.522;1.348;2023-05-14T05:55:59;7.70;;;3.27;;
80307;SDS011;69616;43.522;1.348;2023-05-14T05:58:25;7.23;;;3.10;;
80307;SDS011;69616;43.522;1.348;2023-05-14T06:00:51;5.75;;;3.17;;
80307;SDS011;69616;43.522;1.348;2023-05-14T06:03:17;7.05;;;3.60;;
80307;SDS011;69616;43.522;1.348;2023-05-14T06:05:42;6.53;;;3.07;;
80307;SDS011;69616;43.522;1.348;2023-05-14T06:08:08;7.90;;;3.57;;
80307;SDS011;69616;43.522;1.348;2023-05-14T06:10:33;6.50;;;3.23;;
80307;SDS011;69616;43.522;1.348;2023-05-14T06:13:00;8.00;;;3.80;;
80307;SDS011;69616;43.522;1.348;2023-05-14T06:15:26;6.88;;;3.88;;
80307;SDS011;69616;43.522;1.348;2023-05-14T06:17:51;7.27;;;3.83;;
80307;SDS011;69616;43.522;1.348;2023-05-14T06:20:16;8.37;;;4.03;;
80307;SDS011;69616;43.522;1.348;2023-05-14T06:22:42;9.23;;;4.63;;
80307;SDS011;69616;43.522;1.348;2023-05-14T06:25:08;7.80;;;3.90;;
80307;SDS011;69616;43.522;1.348;2023-05-14T06:27:34;8.38;;;4.15;;
80307;SDS011;69616;43.522;1.348;2023-05-14T06:30:00;7.40;;;4.32;;
80307;SDS011;69616;43.522;1.348;2023-05-14T06:32:25;8.20;;;4.70;;
80307;SDS011;69616;43.522;1.348;2023-05-14T06:34:51;8.37;;;4.17;;
80307;SDS011;69616;43.522;1.348;2023-05-14T06:37:16;8.25;;;4.28;;
80307;SDS011;69616;43.522;1.348;2023-05-14T06:39:42;9.30;;;4.90;;
80307;SDS011;69616;43.522;1.348;2023-05-14T06:42:16;10.93;;;5.57;;
80307;SDS011;69616;43.522;1.348;2023-05-14T06:44:42;11.75;;;5.20;;
80307;SDS011;69616;43.522;1.348;2023-05-14T06:47:09;9.97;;;4.90;;
80307;SDS011;69616;43.522;1.348;2023-05-14T06:49:34;9.50;;;5.20;;
80307;SDS011;69616;43.522;1.348;2023-05-14T06:52:00;9.00;;;4.75;;
80307;SDS011;69616;43.522;1.348;2023-05-14T06:54:26;8.50;;;5.07;;
80307;SDS011;69616;43.522;1.348;2023-05-14T06:56:52;9.97;;;5.27;;
80307;SDS011;69616;43.522;1.348;2023-05-14T06:59:18;10.73;;;5.25;;
80307;SDS011;69616;43.522;1.348;2023-05-14T07:01:43;10.13;;;5.20;;
80307;SDS011;69616;43.522;1.348;2023-05-14T07:04:09;11.97;;;5.63;;
80307;SDS011;69616;43.522;1.348;2023-05-14T07:06:42;11.80;;;5.60;;
80307;SDS011;69616;43.522;1.348;2023-05-14T07:09:07;11.63;;;5.40;;
80307;SDS011;69616;43.522;1.348;2023-05-14T07:11:34;11.35;;;5.10;;
80307;SDS011;69616;43.522;1.348;2023-05-14T07:14:00;10.90;;;5.20;;
80307;SDS011;69616;43.522;1.348;2023-05-14T07:16:25;12.70;;;5.43;;
80307;SDS011;69616;43.522;1.348;2023-05-14T07:18:51;11.93;;;5.80;;
80307;SDS011;69616;43.522;1.348;2023-05-14T07:21:17;11.32;;;5.72;;
80307;SDS011;69616;43.522;1.348;2023-05-14T07:23:42;9.43;;;4.93;;
80307;SDS011;69616;43.522;1.348;2023-05-14T07:26:08;10.40;;;6.27;;
80307;SDS011;69616;43.522;1.348;2023-05-14T07:28:34;8.35;;;4.88;;
80307;SDS011;69616;43.522;1.348;2023-05-14T07:30:59;11.30;;;5.80;;
80307;SDS011;69616;43.522;1.348;2023-05-14T07:33:25;9.77;;;5.10;;
80307;SDS011;69616;43.522;1.348;2023-05-14T07:35:51;10.98;;;5.25;;
80307;SDS011;69616;43.522;1.348;2023-05-14T07:38:17;8.93;;;5.20;;
80307;SDS011;69616;43.522;1.348;2023-05-14T07:40:43;8.23;;;4.78;;
80307;SDS011;69616;43.522;1.348;2023-05-14T07:43:09;10.50;;;5.27;;
80307;SDS011;69616;43.522;1.348;2023-05-14T07:45:35;10.60;;;4.53;;
80307;SDS011;69616;43.522;1.348;2023-05-14T07:48:01;9.40;;;4.90;;
80307;SDS011;69616;43.522;1.348;2023-05-14T07:50:26;11.23;;;5.70;;
80307;SDS011;69616;43.522;1.348;2023-05-14T07:52:52;10.17;;;4.70;;
80307;SDS011;69616;43.522;1.348;2023-05-14T07:55:17;8.30;;;4.23;;
80307;SDS011;69616;43.522;1.348;2023-05-14T07:57:43;11.07;;;4.80;;
80307;SDS011;69616;43.522;1.348;2023-05-14T08:00:09;9.57;;;4.57;;
80307;SDS011;69616;43.522;1.348;2023-05-14T08:02:35;10.05;;;4.35;;
80307;SDS011;69616;43.522;1.348;2023-05-14T08:05:01;9.18;;;4.15;;
80307;SDS011;69616;43.522;1.348;2023-05-14T08:07:28;8.43;;;4.13;;
80307;SDS011;69616;43.522;1.348;2023-05-14T08:09:54;8.27;;;4.45;;
80307;SDS011;69616;43.522;1.348;2023-05-14T08:12:19;9.27;;;4.13;;
80307;SDS011;69616;43.522;1.348;2023-05-14T08:14:45;9.37;;;4.43;;
80307;SDS011;69616;43.522;1.348;2023-05-14T08:17:11;7.95;;;4.40;;
80307;SDS011;69616;43.522;1.348;2023-05-14T08:19:36;10.10;;;5.03;;
80307;SDS011;69616;43.522;1.348;2023-05-14T08:22:02;7.38;;;3.90;;
80307;SDS011;69616;43.522;1.348;2023-05-14T08:24:28;7.80;;;3.60;;
80307;SDS011;69616;43.522;1.348;2023-05-14T08:26:54;9.45;;;3.97;;
80307;SDS011;69616;43.522;1.348;2023-05-14T08:29:19;9.27;;;5.03;;
80307;SDS011;69616;43.522;1.348;2023-05-14T08:31:45;9.10;;;4.90;;
80307;SDS011;69616;43.522;1.348;2023-05-14T08:34:13;9.90;;;5.10;;
80307;SDS011;69616;43.522;1.348;2023-05-14T08:36:39;10.68;;;5.63;;
80307;SDS011;69616;43.522;1.348;2023-05-14T08:39:07;10.18;;;5.25;;
80307;SDS011;69616;43.522;1.348;2023-05-14T08:41:33;10.03;;;5.50;;
80307;SDS011;69616;43.522;1.348;2023-05-14T08:44:07;10.95;;;5.32;;
80307;SDS011;69616;43.522;1.348;2023-05-14T08:46:38;10.45;;;5.35;;
80307;SDS011;69616;43.522;1.348;2023-05-14T08:51:39;9.17;;;5.50;;
80307;SDS011;69616;43.522;1.348;2023-05-14T08:54:05;9.18;;;5.40;;
80307;SDS011;69616;43.522;1.348;2023-05-14T08:56:31;9.52;;;5.30;;
80307;SDS011;69616;43.522;1.348;2023-05-14T08:58:57;10.07;;;5.55;;
80307;SDS011;69616;43.522;1.348;2023-05-14T09:01:24;10.83;;;5.73;;
80307;SDS011;69616;43.522;1.348;2023-05-14T09:03:49;12.07;;;6.18;;
80307;SDS011;69616;43.522;1.348;2023-05-14T09:06:17;10.18;;;5.80;;
80307;SDS011;69616;43.522;1.348;2023-05-14T09:08:43;10.90;;;6.10;;
80307;SDS011;69616;43.522;1.348;2023-05-14T09:11:10;11.20;;;5.68;;
80307;SDS011;69616;43.522;1.348;2023-05-14T09:13:37;13.07;;;6.00;;
80307;SDS011;69616;43.522;1.348;2023-05-14T09:16:03;10.82;;;6.22;;
80307;SDS011;69616;43.522;1.348;2023-05-14T09:18:34;12.05;;;5.93;;
80307;SDS011;69616;43.522;1.348;2023-05-14T09:21:00;10.90;;;5.90;;
80307;SDS011;69616;43.522;1.348;2023-05-14T09:23:26;12.47;;;6.30;;
80307;SDS011;69616;43.522;1.348;2023-05-14T09:25:56;10.55;;;6.00;;
80307;SDS011;69616;43.522;1.348;2023-05-14T09:28:22;13.83;;;6.67;;
80307;SDS011;69616;43.522;1.348;2023-05-14T09:30:51;11.27;;;5.93;;
80307;SDS011;69616;43.522;1.348;2023-05-14T09:33:26;11.13;;;5.95;;
80307;SDS011;69616;43.522;1.348;2023-05-14T09:35:59;11.68;;;6.10;;
80307;SDS011;69616;43.522;1.348;2023-05-14T09:38:29;11.77;;;6.23;;
80307;SDS011;69616;43.522;1.348;2023-05-14T09:40:55;9.18;;;5.70;;
80307;SDS011;69616;43.522;1.348;2023-05-14T09:43:21;9.90;;;5.68;;
80307;SDS011;69616;43.522;1.348;2023-05-14T09:45:47;10.70;;;5.80;;
80307;SDS011;69616;43.522;1.348;2023-05-14T09:48:13;10.48;;;5.40;;
80307;SDS011;69616;43.522;1.348;2023-05-14T09:50:42;9.17;;;5.20;;
80307;SDS011;69616;43.522;1.348;2023-05-14T09:53:08;11.43;;;5.35;;
80307;SDS011;69616;43.522;1.348;2023-05-14T09:55:35;10.75;;;5.72;;
80307;SDS011;69616;43.522;1.348;2023-05-14T09:58:01;8.95;;;5.00;;
80307;SDS011;69616;43.522;1.348;2023-05-14T10:00:30;10.38;;;5.13;;
80307;SDS011;69616;43.522;1.348;2023-05-14T10:02:57;8.80;;;4.80;;
80307;SDS011;69616;43.522;1.348;2023-05-14T10:05:23;8.82;;;4.25;;
80307;SDS011;69616;43.522;1.348;2023-05-14T10:07:50;8.57;;;4.40;;
80307;SDS011;69616;43.522;1.348;2023-05-14T10:10:39;7.47;;;3.88;;
80307;SDS011;69616;43.522;1.348;2023-05-14T10:13:12;8.60;;;4.10;;
80307;SDS011;69616;43.522;1.348;2023-05-14T10:15:48;7.87;;;4.33;;
80307;SDS011;69616;43.522;1.348;2023-05-14T10:18:30;7.05;;;4.20;;
80307;SDS011;69616;43.522;1.348;2023-05-14T10:21:04;8.05;;;4.63;;
80307;SDS011;69616;43.522;1.348;2023-05-14T10:23:30;7.28;;;4.05;;
80307;SDS011;69616;43.522;1.348;2023-05-14T10:25:59;7.57;;;3.53;;
80307;SDS011;69616;43.522;1.348;2023-05-14T10:28:25;6.28;;;3.78;;
80307;SDS011;69616;43.522;1.348;2023-05-14T10:30:52;7.57;;;3.92;;
80307;SDS011;69616;43.522;1.348;2023-05-14T10:33:18;6.32;;;3.80;;
80307;SDS011;69616;43.522;1.348;2023-05-14T10:36:01;8.83;;;3.63;;
80307;SDS011;69616;43.522;1.348;2023-05-14T10:38:29;6.80;;;3.75;;
80307;SDS011;69616;43.522;1.348;2023-05-14T10:41:09;7.32;;;3.38;;
80307;SDS011;69616;43.522;1.348;2023-05-14T10:43:39;6.80;;;3.15;;
80307;SDS011;69616;43.522;1.348;2023-05-14T10:46:06;7.78;;;3.92;;
80307;SDS011;69616;43.522;1.348;2023-05-14T10:48:33;10.53;;;3.10;;
80307;SDS011;69616;43.522;1.348;2023-05-14T10:51:01;5.40;;;3.05;;
80307;SDS011;69616;43.522;1.348;2023-05-14T10:53:40;6.90;;;3.22;;
80307;SDS011;69616;43.522;1.348;2023-05-14T10:56:07;7.25;;;3.40;;
80307;SDS011;69616;43.522;1.348;2023-05-14T10:58:38;5.63;;;3.23;;
80307;SDS011;69616;43.522;1.348;2023-05-14T11:01:08;6.68;;;2.97;;
80307;SDS011;69616;43.522;1.348;2023-05-14T11:03:39;6.15;;;2.85;;
80307;SDS011;69616;43.522;1.348;2023-05-14T11:06:09;7.03;;;3.10;;
80307;SDS011;69616;43.522;1.348;2023-05-14T11:08:37;6.13;;;3.20;;
80307;SDS011;69616;43.522;1.348;2023-05-14T11:11:05;7.53;;;3.30;;
80307;SDS011;69616;43.522;1.348;2023-05-14T11:13:32;5.25;;;3.17;;
80307;SDS011;69616;43.522;1.348;2023-05-14T11:15:59;5.90;;;3.00;;
80307;SDS011;69616;43.522;1.348;2023-05-14T11:18:26;6.53;;;3.08;;
80307;SDS011;69616;43.522;1.348;2023-05-14T11:20:59;5.30;;;2.70;;
80307;SDS011;69616;43.522;1.348;2023-05-14T11:23:25;8.02;;;3.20;;
80307;SDS011;69616;43.522;1.348;2023-05-14T11:25:51;7.10;;;3.17;;
80307;SDS011;69616;43.522;1.348;2023-05-14T11:28:20;5.78;;;2.83;;
80307;SDS011;69616;43.522;1.348;2023-05-14T11:30:49;5.70;;;2.70;;
80307;SDS011;69616;43.522;1.348;2023-05-14T11:33:17;7.73;;;2.87;;
80307;SDS011;69616;43.522;1.348;2023-05-14T11:35:44;8.75;;;3.20;;
80307;SDS011;69616;43.522;1.348;2023-05-14T11:38:17;6.57;;;2.90;;
80307;SDS011;69616;43.522;1.348;2023-05-14T11:40:50;5.10;;;2.72;;
80307;SDS011;69616;43.522;1.348;2023-05-14T11:43:17;4.95;;;2.38;;
80307;SDS011;69616;43.522;1.348;2023-05-14T11:45:43;5.83;;;2.73;;
80307;SDS011;69616;43.522;1.348;2023-05-14T11:48:15;5.93;;;2.58;;
80307;SDS011;69616;43.522;1.348;2023-05-14T11:50:43;6.37;;;2.90;;
80307;SDS011;69616;43.522;1.348;2023-05-14T11:53:09;7.20;;;2.90;;
80307;SDS011;69616;43.522;1.348;2023-05-14T11:55:35;5.37;;;2.73;;
80307;SDS011;69616;43.522;1.348;2023-05-14T11:58:01;5.53;;;2.92;;
80307;SDS011;69616;43.522;1.348;2023-05-14T12:00:26;5.40;;;2.60;;
80307;SDS011;69616;43.522;1.348;2023-05-14T12:02:52;6.38;;;2.70;;
80307;SDS011;69616;43.522;1.348;2023-05-14T12:05:19;6.63;;;3.17;;
80307;SDS011;69616;43.522;1.348;2023-05-14T12:07:44;4.57;;;2.72;;
80307;SDS011;69616;43.522;1.348;2023-05-14T12:10:11;5.43;;;2.72;;
80307;SDS011;69616;43.522;1.348;2023-05-14T12:12:37;5.70;;;2.80;;
80307;SDS011;69616;43.522;1.348;2023-05-14T12:15:09;4.38;;;2.38;;
80307;SDS011;69616;43.522;1.348;2023-05-14T12:17:36;4.88;;;2.65;;
80307;SDS011;69616;43.522;1.348;2023-05-14T12:20:02;5.13;;;2.97;;
80307;SDS011;69616;43.522;1.348;2023-05-14T12:22:28;5.22;;;2.40;;
80307;SDS011;69616;43.522;1.348;2023-05-14T12:24:54;6.95;;;2.47;;
80307;SDS011;69616;43.522;1.348;2023-05-14T12:27:23;4.85;;;2.70;;
80307;SDS011;69616;43.522;1.348;2023-05-14T12:30:24;5.13;;;2.50;;
80307;SDS011;69616;43.522;1.348;2023-05-14T12:32:42;5.05;;;2.47;;
80307;SDS011;69616;43.522;1.348;2023-05-14T12:35:08;5.50;;;2.60;;
80307;SDS011;69616;43.522;1.348;2023-05-14T12:37:34;7.38;;;2.70;;
80307;SDS011;69616;43.522;1.348;2023-05-14T12:40:02;5.70;;;2.40;;
80307;SDS011;69616;43.522;1.348;2023-05-14T12:42:29;5.38;;;2.58;;
80307;SDS011;69616;43.522;1.348;2023-05-14T12:44:54;5.27;;;2.70;;
80307;SDS011;69616;43.522;1.348;2023-05-14T12:47:20;5.55;;;2.53;;
80307;SDS011;69616;43.522;1.348;2023-05-14T12:49:45;7.13;;;2.60;;
80307;SDS011;69616;43.522;1.348;2023-05-14T12:52:11;3.87;;;2.17;;
80307;SDS011;69616;43.522;1.348;2023-05-14T12:54:36;5.13;;;2.30;;
80307;SDS011;69616;43.522;1.348;2023-05-14T12:57:04;6.20;;;2.43;;
80307;SDS011;69616;43.522;1.348;2023-05-14T12:59:30;5.70;;;2.40;;
80307;SDS011;69616;43.522;1.348;2023-05-14T13:01:55;7.57;;;2.40;;
80307;SDS011;69616;43.522;1.348;2023-05-14T13:04:21;4.85;;;2.30;;
80307;SDS011;69616;43.522;1.348;2023-05-14T13:06:46;5.17;;;2.50;;
80307;SDS011;69616;43.522;1.348;2023-05-14T13:09:12;6.20;;;2.75;;
80307;SDS011;69616;43.522;1.348;2023-05-14T13:11:37;5.60;;;2.60;;
80307;SDS011;69616;43.522;1.348;2023-05-14T13:14:03;6.23;;;2.70;;
80307;SDS011;69616;43.522;1.348;2023-05-14T13:16:28;4.50;;;2.50;;
80307;SDS011;69616;43.522;1.348;2023-05-14T13:18:55;5.78;;;2.40;;
80307;SDS011;69616;43.522;1.348;2023-05-14T13:21:20;5.32;;;2.65;;
80307;SDS011;69616;43.522;1.348;2023-05-14T13:23:46;5.27;;;2.47;;
80307;SDS011;69616;43.522;1.348;2023-05-14T13:26:12;7.00;;;2.80;;
80307;SDS011;69616;43.522;1.348;2023-05-14T13:28:38;5.38;;;2.63;;
80307;SDS011;69616;43.522;1.348;2023-05-14T13:31:08;6.40;;;2.83;;
80307;SDS011;69616;43.522;1.348;2023-05-14T13:33:35;5.63;;;2.60;;
80307;SDS011;69616;43.522;1.348;2023-05-14T13:36:02;4.80;;;2.42;;
80307;SDS011;69616;43.522;1.348;2023-05-14T13:38:29;4.75;;;2.53;;
80307;SDS011;69616;43.522;1.348;2023-05-14T13:40:54;7.67;;;2.70;;
80307;SDS011;69616;43.522;1.348;2023-05-14T13:43:22;6.03;;;2.80;;
80307;SDS011;69616;43.522;1.348;2023-05-14T13:45:48;5.25;;;2.55;;
80307;SDS011;69616;43.522;1.348;2023-05-14T13:48:15;5.57;;;2.60;;
80307;SDS011;69616;43.522;1.348;2023-05-14T13:50:40;5.90;;;2.45;;
80307;SDS011;69616;43.522;1.348;2023-05-14T13:53:06;4.73;;;2.50;;
80307;SDS011;69616;43.522;1.348;2023-05-14T13:55:31;5.90;;;2.37;;
80307;SDS011;69616;43.522;1.348;2023-05-14T13:57:57;4.65;;;2.70;;
80307;SDS011;69616;43.522;1.348;2023-05-14T14:00:23;5.10;;;2.70;;
80307;SDS011;69616;43.522;1.348;2023-05-14T14:02:49;5.07;;;2.80;;
80307;SDS011;69616;43.522;1.348;2023-05-14T14:05:15;5.25;;;2.67;;
80307;SDS011;69616;43.522;1.348;2023-05-14T14:07:40;6.83;;;2.67;;
80307;SDS011;69616;43.522;1.348;2023-05-14T14:10:06;5.93;;;3.10;;
80307;SDS011;69616;43.522;1.348;2023-05-14T14:12:33;6.30;;;2.77;;
80307;SDS011;69616;43.522;1.348;2023-05-14T14:14:58;7.30;;;3.08;;
80307;SDS011;69616;43.522;1.348;2023-05-14T14:17:25;6.60;;;3.10;;
80307;SDS011;69616;43.522;1.348;2023-05-14T14:19:50;7.57;;;3.13;;
80307;SDS011;69616;43.522;1.348;2023-05-14T14:22:16;6.97;;;3.10;;
80307;SDS011;69616;43.522;1.348;2023-05-14T14:24:42;6.73;;;2.90;;
80307;SDS011;69616;43.522;1.348;2023-05-14T14:27:07;5.63;;;2.77;;
80307;SDS011;69616;43.522;1.348;2023-05-14T14:29:33;5.80;;;2.60;;
80307;SDS011;69616;43.522;1.348;2023-05-14T14:32:01;6.07;;;3.10;;
80307;SDS011;69616;43.522;1.348;2023-05-14T14:34:26;7.13;;;2.90;;
80307;SDS011;69616;43.522;1.348;2023-05-14T14:36:52;5.28;;;2.97;;
80307;SDS011;69616;43.522;1.348;2023-05-14T14:39:18;7.50;;;3.33;;
80307;SDS011;69616;43.522;1.348;2023-05-14T14:41:43;6.65;;;3.38;;
80307;SDS011;69616;43.522;1.348;2023-05-14T14:44:09;7.40;;;2.90;;
80307;SDS011;69616;43.522;1.348;2023-05-14T14:46:34;5.73;;;3.10;;